createdAt,value
2018-06-04T00:00:59.545Z,983.90
2018-06-04T00:01:59.724Z,983.91
2018-06-04T00:02:59.924Z,983.90
2018-06-04T00:04:00.139Z,983.90
2018-06-04T00:05:00.306Z,983.86
2018-06-04T00:06:00.481Z,983.85
2018-06-04T00:07:00.686Z,983.82
2018-06-04T00:08:00.852Z,983.87
2018-06-04T00:09:01.035Z,983.86
2018-06-04T00:10:01.252Z,983.85
2018-06-04T00:11:01.394Z,983.88
2018-06-04T00:12:01.575Z,983.86
2018-06-04T00:13:01.769Z,983.83
2018-06-04T00:14:01.930Z,983.83
2018-06-04T00:15:02.149Z,983.82
2018-06-04T00:16:02.359Z,983.79
2018-06-04T00:17:02.528Z,983.79
2018-06-04T00:18:02.708Z,983.81
2018-06-04T00:19:02.930Z,983.81
2018-06-04T00:20:03.116Z,983.79
2018-06-04T00:21:03.267Z,983.82
2018-06-04T00:22:03.476Z,983.83
2018-06-04T00:23:03.630Z,983.83
2018-06-04T00:24:03.811Z,983.77
2018-06-04T00:25:03.989Z,983.78
2018-06-04T00:26:04.171Z,983.74
2018-06-04T00:27:04.359Z,983.75
2018-06-04T00:28:04.541Z,983.74
2018-06-04T00:29:04.749Z,983.71
2018-06-04T00:30:04.943Z,983.73
2018-06-04T00:31:05.180Z,983.74
2018-06-04T00:32:05.306Z,983.72
2018-06-04T00:33:06.426Z,983.71
2018-06-04T00:34:05.755Z,983.73
2018-06-04T00:35:05.924Z,983.69
2018-06-04T00:36:06.136Z,983.67
2018-06-04T00:37:06.314Z,983.68
2018-06-04T00:38:06.494Z,983.64
2018-06-04T00:39:06.649Z,983.64
2018-06-04T00:40:06.842Z,983.61
2018-06-04T00:41:07.076Z,983.61
2018-06-04T00:42:07.225Z,983.62
2018-06-04T00:43:07.378Z,983.59
2018-06-04T00:44:07.591Z,983.59
2018-06-04T00:45:07.734Z,983.61
2018-06-04T00:46:07.929Z,983.60
2018-06-04T00:47:08.134Z,983.59
2018-06-04T00:48:08.288Z,983.57
2018-06-04T00:49:08.455Z,983.53
2018-06-04T00:50:08.683Z,983.53
2018-06-04T00:51:08.849Z,983.56
2018-06-04T00:52:09.027Z,983.53
2018-06-04T00:53:09.225Z,983.54
2018-06-04T00:54:09.351Z,983.49
2018-06-04T00:55:09.537Z,983.49
2018-06-04T00:56:09.725Z,983.51
2018-06-04T00:57:09.964Z,983.49
2018-06-04T00:58:10.098Z,983.47
2018-06-04T00:59:10.273Z,983.52
2018-06-04T01:00:10.477Z,983.53
2018-06-04T01:01:10.649Z,983.54
2018-06-04T01:02:10.850Z,983.54
2018-06-04T01:03:10.998Z,983.57
2018-06-04T01:04:11.360Z,983.49
2018-06-04T01:05:11.455Z,983.51
2018-06-04T01:06:11.644Z,983.53
2018-06-04T01:07:11.810Z,983.50
2018-06-04T01:08:12.019Z,983.50
2018-06-04T01:09:12.198Z,983.52
2018-06-04T01:10:12.498Z,983.53
2018-06-04T01:11:12.550Z,983.57
2018-06-04T01:12:12.726Z,983.54
2018-06-04T01:13:12.911Z,983.56
2018-06-04T01:14:13.073Z,983.55
2018-06-04T01:15:15.059Z,983.58
2018-06-04T01:16:13.418Z,983.52
2018-06-04T01:17:13.634Z,983.53
2018-06-04T01:18:13.775Z,983.52
2018-06-04T01:19:13.969Z,983.52
2018-06-04T01:20:14.160Z,983.48
2018-06-04T01:21:14.355Z,983.47
2018-06-04T01:22:14.531Z,983.48
2018-06-04T01:23:14.715Z,983.49
2018-06-04T01:24:14.919Z,983.45
2018-06-04T01:25:15.095Z,983.47
2018-06-04T01:26:15.280Z,983.46
2018-06-04T01:27:15.449Z,983.45
2018-06-04T01:28:15.644Z,983.45
2018-06-04T01:29:15.816Z,983.45
2018-06-04T01:30:16.010Z,983.46
2018-06-04T01:31:16.207Z,983.45
2018-06-04T01:32:16.400Z,983.42
2018-06-04T01:33:16.575Z,983.39
2018-06-04T01:34:16.725Z,983.39
2018-06-04T01:35:16.930Z,983.37
2018-06-04T01:36:17.104Z,983.37
2018-06-04T01:37:17.296Z,983.33
2018-06-04T01:38:17.532Z,983.35
2018-06-04T01:39:17.676Z,983.32
2018-06-04T01:40:17.862Z,983.31
2018-06-04T01:41:18.040Z,983.31
2018-06-04T01:42:18.229Z,983.27
2018-06-04T01:43:18.439Z,983.27
2018-06-04T01:44:18.592Z,983.29
2018-06-04T01:45:18.773Z,983.29
2018-06-04T01:46:18.955Z,983.25
2018-06-04T01:47:19.153Z,983.23
2018-06-04T01:48:19.328Z,983.25
2018-06-04T01:49:19.525Z,983.20
2018-06-04T01:50:19.689Z,983.24
2018-06-04T01:51:19.879Z,983.21
2018-06-04T01:52:20.066Z,983.19
2018-06-04T01:53:20.279Z,983.21
2018-06-04T01:54:20.439Z,983.19
2018-06-04T01:55:20.641Z,983.18
2018-06-04T01:56:20.794Z,983.19
2018-06-04T01:57:20.978Z,983.15
2018-06-04T01:58:21.216Z,983.15
2018-06-04T01:59:21.335Z,983.15
2018-06-04T02:00:21.519Z,983.14
2018-06-04T02:01:21.700Z,983.13
2018-06-04T02:02:21.924Z,983.16
2018-06-04T02:03:22.096Z,983.17
2018-06-04T02:04:22.269Z,983.15
2018-06-04T02:05:22.441Z,983.16
2018-06-04T02:06:22.624Z,983.13
2018-06-04T02:07:22.823Z,983.12
2018-06-04T02:08:23.021Z,983.15
2018-06-04T02:09:23.184Z,983.11
2018-06-04T02:10:23.329Z,983.09
2018-06-04T02:11:24.520Z,983.09
2018-06-04T02:12:23.677Z,983.09
2018-06-04T02:13:23.859Z,983.09
2018-06-04T02:14:24.099Z,983.07
2018-06-04T02:15:24.231Z,983.09
2018-06-04T02:16:24.421Z,983.05
2018-06-04T02:17:24.613Z,983.02
2018-06-04T02:18:24.799Z,983.00
2018-06-04T02:19:25.013Z,982.99
2018-06-04T02:20:25.149Z,983.01
2018-06-04T02:21:25.325Z,983.03
2018-06-04T02:22:25.518Z,983.01
2018-06-04T02:23:25.704Z,983.01
2018-06-04T02:24:25.917Z,982.96
2018-06-04T02:25:26.076Z,982.98
2018-06-04T02:26:26.282Z,983.00
2018-06-04T02:27:26.462Z,982.98
2018-06-04T02:28:26.603Z,983.01
2018-06-04T02:29:26.789Z,983.01
2018-06-04T02:30:26.970Z,982.99
2018-06-04T02:31:27.201Z,982.98
2018-06-04T02:32:27.348Z,982.99
2018-06-04T02:33:27.581Z,982.95
2018-06-04T02:34:27.724Z,982.94
2018-06-04T02:35:27.912Z,982.97
2018-06-04T02:36:28.077Z,982.95
2018-06-04T02:37:28.287Z,982.96
2018-06-04T02:38:28.470Z,982.95
2018-06-04T02:39:28.629Z,982.96
2018-06-04T02:40:28.890Z,982.95
2018-06-04T02:41:29.036Z,982.95
2018-06-04T02:42:29.158Z,982.94
2018-06-04T02:43:29.341Z,982.96
2018-06-04T02:44:29.536Z,982.95
2018-06-04T02:45:29.708Z,982.95
2018-06-04T02:46:29.880Z,982.93
2018-06-04T02:47:30.138Z,982.91
2018-06-04T02:48:30.239Z,982.95
2018-06-04T02:49:30.465Z,982.95
2018-06-04T02:50:30.637Z,982.94
2018-06-04T02:51:30.830Z,982.94
2018-06-04T02:52:30.958Z,982.93
2018-06-04T02:53:31.167Z,982.91
2018-06-04T02:54:31.312Z,982.92
2018-06-04T02:55:31.510Z,982.96
2018-06-04T02:56:31.688Z,982.94
2018-06-04T02:57:31.863Z,982.95
2018-06-04T02:58:32.066Z,982.99
2018-06-04T02:59:32.236Z,982.98
2018-06-04T03:00:32.410Z,983.01
2018-06-04T03:01:32.616Z,983.02
2018-06-04T03:02:32.816Z,982.99
2018-06-04T03:03:33.033Z,983.02
2018-06-04T03:04:33.177Z,983.02
2018-06-04T03:05:33.342Z,983.02
2018-06-04T03:06:33.529Z,983.01
2018-06-04T03:07:33.701Z,983.00
2018-06-04T03:08:33.878Z,983.01
2018-06-04T03:09:34.056Z,982.99
2018-06-04T03:10:34.285Z,983.01
2018-06-04T03:11:34.413Z,983.01
2018-06-04T03:12:34.603Z,983.00
2018-06-04T03:13:34.796Z,983.01
2018-06-04T03:14:34.972Z,983.00
2018-06-04T03:15:35.149Z,983.01
2018-06-04T03:16:35.329Z,982.98
2018-06-04T03:17:35.505Z,982.99
2018-06-04T03:18:35.714Z,982.96
2018-06-04T03:19:35.866Z,982.99
2018-06-04T03:20:36.049Z,983.00
2018-06-04T03:21:36.219Z,982.96
2018-06-04T03:22:36.404Z,982.99
2018-06-04T03:23:36.607Z,982.96
2018-06-04T03:24:36.775Z,982.96
2018-06-04T03:25:36.965Z,982.93
2018-06-04T03:26:37.210Z,982.91
2018-06-04T03:27:37.323Z,982.90
2018-06-04T03:28:37.545Z,982.87
2018-06-04T03:29:37.685Z,982.85
2018-06-04T03:30:37.931Z,982.89
2018-06-04T03:31:38.084Z,982.85
2018-06-04T03:32:38.231Z,982.88
2018-06-04T03:33:38.414Z,982.86
2018-06-04T03:34:38.624Z,982.87
2018-06-04T03:35:38.784Z,982.90
2018-06-04T03:36:38.974Z,982.89
2018-06-04T03:37:39.151Z,982.88
2018-06-04T03:38:39.354Z,982.89
2018-06-04T03:39:39.507Z,982.88
2018-06-04T03:40:39.747Z,982.90
2018-06-04T03:41:39.919Z,982.89
2018-06-04T03:42:40.084Z,982.87
2018-06-04T03:43:40.266Z,982.88
2018-06-04T03:44:40.445Z,982.91
2018-06-04T03:45:40.638Z,982.93
2018-06-04T03:46:40.843Z,982.88
2018-06-04T03:47:40.980Z,982.90
2018-06-04T03:48:41.157Z,982.86
2018-06-04T03:49:41.338Z,982.87
2018-06-04T03:50:41.516Z,982.85
2018-06-04T03:51:41.714Z,982.88
2018-06-04T03:52:41.871Z,982.90
2018-06-04T03:53:42.063Z,982.87
2018-06-04T03:54:42.278Z,982.92
2018-06-04T03:55:42.468Z,982.94
2018-06-04T03:56:42.638Z,982.90
2018-06-04T03:57:42.776Z,982.92
2018-06-04T03:58:42.966Z,982.90
2018-06-04T03:59:43.132Z,982.91
2018-06-04T04:00:43.336Z,982.89
2018-06-04T04:01:43.575Z,982.88
2018-06-04T04:02:43.665Z,982.88
2018-06-04T04:03:43.853Z,982.90
2018-06-04T04:04:44.035Z,982.90
2018-06-04T04:05:44.202Z,982.91
2018-06-04T04:06:44.442Z,982.89
2018-06-04T04:07:44.601Z,982.91
2018-06-04T04:08:44.768Z,982.96
2018-06-04T04:09:44.955Z,982.90
2018-06-04T04:10:45.138Z,982.91
2018-06-04T04:11:45.324Z,982.88
2018-06-04T04:12:45.479Z,982.88
2018-06-04T04:13:45.688Z,982.87
2018-06-04T04:14:45.852Z,982.86
2018-06-04T04:15:46.099Z,982.84
2018-06-04T04:16:46.232Z,982.88
2018-06-04T04:17:46.412Z,982.86
2018-06-04T04:18:46.617Z,982.89
2018-06-04T04:19:46.806Z,982.87
2018-06-04T04:20:46.983Z,982.86
2018-06-04T04:21:47.166Z,982.86
2018-06-04T04:22:47.336Z,982.83
2018-06-04T04:23:47.500Z,982.83
2018-06-04T04:24:47.691Z,982.86
2018-06-04T04:25:47.877Z,982.87
2018-06-04T04:26:48.073Z,982.88
2018-06-04T04:27:48.317Z,982.86
2018-06-04T04:28:48.428Z,982.87
2018-06-04T04:29:48.625Z,982.87
2018-06-04T04:30:48.792Z,982.88
2018-06-04T04:31:48.964Z,982.86
2018-06-04T04:32:49.129Z,982.86
2018-06-04T04:33:49.316Z,982.86
2018-06-04T04:34:49.503Z,982.83
2018-06-04T04:35:49.709Z,982.86
2018-06-04T04:36:49.874Z,982.83
2018-06-04T04:37:50.090Z,982.87
2018-06-04T04:38:50.252Z,982.82
2018-06-04T04:39:50.428Z,982.85
2018-06-04T04:40:50.590Z,982.86
2018-06-04T04:41:50.786Z,982.68
2018-06-04T04:42:50.949Z,982.60
2018-06-04T04:43:51.133Z,982.29
2018-06-04T04:44:51.323Z,982.37
2018-06-04T04:45:51.511Z,982.44
2018-06-04T04:46:51.696Z,982.28
2018-06-04T04:47:51.877Z,982.24
2018-06-04T04:48:52.121Z,982.25
2018-06-04T04:49:52.286Z,982.23
2018-06-04T04:50:52.416Z,982.23
2018-06-04T04:51:52.617Z,982.14
2018-06-04T04:52:52.806Z,982.27
2018-06-04T04:53:53.061Z,982.29
2018-06-04T04:54:53.183Z,982.28
2018-06-04T04:55:53.356Z,982.35
2018-06-04T04:56:53.528Z,982.14
2018-06-04T04:57:53.729Z,982.15
2018-06-04T04:58:53.934Z,982.35
2018-06-04T04:59:54.068Z,982.23
2018-06-04T05:00:54.277Z,982.28
2018-06-04T05:01:54.443Z,982.17
2018-06-04T05:02:54.624Z,982.13
2018-06-04T05:03:54.835Z,982.14
2018-06-04T05:04:55.021Z,982.11
2018-06-04T05:05:55.256Z,982.17
2018-06-04T05:06:55.396Z,982.19
2018-06-04T05:07:55.569Z,982.09
2018-06-04T05:08:55.747Z,982.14
2018-06-04T05:09:55.952Z,982.19
2018-06-04T05:10:56.154Z,982.29
2018-06-04T05:11:56.362Z,982.35
2018-06-04T05:12:56.551Z,982.37
2018-06-04T05:13:56.756Z,982.47
2018-06-04T05:14:56.908Z,982.56
2018-06-04T05:15:57.097Z,982.66
2018-06-04T05:16:57.304Z,982.70
2018-06-04T05:17:57.490Z,982.83
2018-06-04T05:18:57.648Z,982.91
2018-06-04T05:19:57.862Z,983.03
2018-06-04T05:20:58.071Z,983.11
2018-06-04T05:21:58.236Z,983.19
2018-06-04T05:22:58.406Z,983.31
2018-06-04T05:23:58.624Z,983.40
2018-06-04T05:24:58.809Z,983.41
2018-06-04T05:25:58.974Z,983.47
2018-06-04T05:26:59.161Z,983.52
2018-06-04T05:27:59.380Z,983.57
2018-06-04T05:28:59.551Z,983.57
2018-06-04T05:29:59.770Z,983.63
2018-06-04T05:30:59.970Z,983.58
2018-06-04T05:32:00.115Z,983.52
2018-06-04T05:33:00.293Z,983.47
2018-06-04T05:34:00.523Z,983.50
2018-06-04T05:35:00.694Z,983.44
2018-06-04T05:36:00.877Z,983.30
2018-06-04T05:37:01.050Z,983.24
2018-06-04T05:38:01.268Z,983.31
2018-06-04T05:39:01.415Z,983.47
2018-06-04T05:40:01.662Z,983.44
2018-06-04T05:41:01.792Z,983.55
2018-06-04T05:42:02.023Z,983.58
2018-06-04T05:43:02.211Z,983.60
2018-06-04T05:44:02.407Z,983.65
2018-06-04T05:45:02.596Z,983.66
2018-06-04T05:46:02.804Z,983.66
2018-06-04T05:47:03.000Z,983.64
2018-06-04T05:48:03.190Z,983.67
2018-06-04T05:49:03.387Z,983.61
2018-06-04T05:50:03.618Z,983.64
2018-06-04T05:51:03.787Z,983.59
2018-06-04T05:52:03.980Z,983.55
2018-06-04T05:53:04.213Z,983.41
2018-06-04T05:54:04.372Z,983.33
2018-06-04T05:55:04.566Z,983.27
2018-06-04T05:56:04.747Z,983.26
2018-06-04T05:57:04.940Z,983.27
2018-06-04T05:58:05.145Z,983.21
2018-06-04T05:59:05.490Z,983.19
2018-06-04T06:00:05.555Z,983.16
2018-06-04T06:01:05.793Z,983.17
2018-06-04T06:02:05.976Z,983.15
2018-06-04T06:03:06.133Z,983.16
2018-06-04T06:04:06.299Z,983.11
2018-06-04T06:05:06.511Z,983.13
2018-06-04T06:06:06.692Z,983.08
2018-06-04T06:07:06.919Z,983.05
2018-06-04T06:08:07.070Z,983.04
2018-06-04T06:09:07.276Z,983.07
2018-06-04T06:10:07.485Z,983.06
2018-06-04T06:11:07.695Z,983.05
2018-06-04T06:12:07.869Z,983.05
2018-06-04T06:13:08.048Z,983.02
2018-06-04T06:14:08.267Z,983.01
2018-06-04T06:15:08.431Z,983.01
2018-06-04T06:16:08.677Z,982.96
2018-06-04T06:17:08.863Z,982.96
2018-06-04T06:18:09.000Z,982.97
2018-06-04T06:19:09.184Z,982.97
2018-06-04T06:20:09.368Z,982.92
2018-06-04T06:21:09.568Z,982.93
2018-06-04T06:22:09.758Z,982.93
2018-06-04T06:23:09.937Z,982.93
2018-06-04T06:24:10.120Z,982.94
2018-06-04T06:25:10.344Z,982.95
2018-06-04T06:26:10.508Z,982.93
2018-06-04T06:27:10.713Z,982.92
2018-06-04T06:28:10.897Z,982.90
2018-06-04T06:29:11.084Z,982.87
2018-06-04T06:30:11.295Z,982.88
2018-06-04T06:31:11.457Z,982.88
2018-06-04T06:32:11.694Z,982.89
2018-06-04T06:33:11.832Z,982.85
2018-06-04T06:34:12.047Z,982.88
2018-06-04T06:35:12.229Z,982.89
2018-06-04T06:36:12.418Z,982.89
2018-06-04T06:37:12.640Z,982.90
2018-06-04T06:38:12.812Z,982.85
2018-06-04T06:39:13.001Z,982.80
2018-06-04T06:40:13.205Z,982.78
2018-06-04T06:41:13.404Z,982.74
2018-06-04T06:42:13.621Z,982.76
2018-06-04T06:43:13.822Z,982.69
2018-06-04T06:44:14.065Z,982.71
2018-06-04T06:45:14.182Z,982.69
2018-06-04T06:46:14.360Z,982.64
2018-06-04T06:47:14.574Z,982.66
2018-06-04T06:48:14.776Z,982.66
2018-06-04T06:49:14.928Z,982.65
2018-06-04T06:50:15.130Z,982.65
2018-06-04T06:51:15.323Z,982.66
2018-06-04T06:52:15.543Z,982.60
2018-06-04T06:53:15.721Z,982.63
2018-06-04T06:54:15.900Z,982.61
2018-06-04T06:55:16.098Z,982.57
2018-06-04T06:56:16.290Z,982.61
2018-06-04T06:57:16.473Z,982.61
2018-06-04T06:58:16.744Z,982.56
2018-06-04T06:59:16.843Z,982.59
2018-06-04T07:00:17.061Z,982.56
2018-06-04T07:01:17.237Z,982.56
2018-06-04T07:02:17.412Z,982.58
2018-06-04T07:03:17.614Z,982.55
2018-06-04T07:04:17.824Z,982.57
2018-06-04T07:05:17.994Z,982.52
2018-06-04T07:06:18.152Z,982.55
2018-06-04T07:07:18.397Z,982.53
2018-06-04T07:08:18.530Z,982.54
2018-06-04T07:09:18.739Z,982.56
2018-06-04T07:10:18.944Z,982.58
2018-06-04T07:11:19.102Z,982.58
2018-06-04T07:12:19.298Z,982.65
2018-06-04T07:13:19.483Z,982.55
2018-06-04T07:14:19.730Z,982.48
2018-06-04T07:15:19.910Z,982.48
2018-06-04T07:16:20.097Z,982.58
2018-06-04T07:17:20.247Z,982.66
2018-06-04T07:18:20.421Z,982.71
2018-06-04T07:19:20.713Z,982.69
2018-06-04T07:20:20.829Z,982.72
2018-06-04T07:21:21.009Z,982.73
2018-06-04T07:22:21.203Z,982.73
2018-06-04T07:23:21.400Z,982.78
2018-06-04T07:24:21.575Z,982.81
2018-06-04T07:25:21.763Z,982.78
2018-06-04T07:26:21.953Z,982.78
2018-06-04T07:27:22.166Z,982.75
2018-06-04T07:28:22.346Z,982.79
2018-06-04T07:29:22.529Z,982.75
2018-06-04T07:30:22.727Z,982.74
2018-06-04T07:31:22.971Z,982.73
2018-06-04T07:32:23.120Z,982.78
2018-06-04T07:33:23.314Z,982.72
2018-06-04T07:34:23.481Z,982.73
2018-06-04T07:35:23.678Z,982.72
2018-06-04T07:36:23.910Z,982.74
2018-06-04T07:37:24.121Z,982.75
2018-06-04T07:38:24.287Z,982.71
2018-06-04T07:39:24.520Z,982.73
2018-06-04T07:40:24.633Z,982.69
2018-06-04T07:41:24.832Z,982.70
2018-06-04T07:42:25.029Z,982.68
2018-06-04T07:43:25.222Z,982.67
2018-06-04T07:44:25.410Z,982.72
2018-06-04T07:45:25.595Z,982.72
2018-06-04T07:46:25.782Z,982.63
2018-06-04T07:47:25.962Z,982.62
2018-06-04T07:48:26.163Z,982.61
2018-06-04T07:49:26.359Z,982.60
2018-06-04T07:50:26.555Z,982.58
2018-06-04T07:51:26.753Z,982.56
2018-06-04T07:52:26.947Z,982.57
2018-06-04T07:53:27.163Z,982.51
2018-06-04T07:54:27.368Z,982.50
2018-06-04T07:55:27.572Z,982.50
2018-06-04T07:56:27.747Z,982.54
2018-06-04T07:57:27.946Z,982.51
2018-06-04T07:58:28.154Z,982.50
2018-06-04T07:59:28.369Z,982.50
2018-06-04T08:00:28.570Z,982.45
2018-06-04T08:01:28.799Z,982.46
2018-06-04T08:02:28.994Z,982.47
2018-06-04T08:03:29.196Z,982.47
2018-06-04T08:04:29.449Z,982.45
2018-06-04T08:05:29.593Z,982.46
2018-06-04T08:06:29.864Z,982.44
2018-06-04T08:07:29.999Z,982.42
2018-06-04T08:08:30.181Z,982.41
2018-06-04T08:09:30.374Z,982.37
2018-06-04T08:10:30.564Z,982.38
2018-06-04T08:11:30.765Z,982.31
2018-06-04T08:12:30.978Z,982.28
2018-06-04T08:13:31.165Z,982.27
2018-06-04T08:14:31.335Z,982.30
2018-06-04T08:15:31.539Z,982.27
2018-06-04T08:16:31.733Z,982.23
2018-06-04T08:17:31.949Z,982.30
2018-06-04T08:18:32.118Z,982.25
2018-06-04T08:19:32.311Z,982.24
2018-06-04T08:20:32.506Z,982.19
2018-06-04T08:21:32.708Z,982.18
2018-06-04T08:22:32.900Z,982.20
2018-06-04T08:23:33.138Z,982.17
2018-06-04T08:24:33.357Z,982.19
2018-06-04T08:25:33.556Z,982.15
2018-06-04T08:26:33.751Z,982.16
2018-06-04T08:27:34.065Z,982.17
2018-06-04T08:28:34.167Z,982.19
2018-06-04T08:29:34.360Z,982.17
2018-06-04T08:30:34.579Z,982.12
2018-06-04T08:31:34.751Z,982.12
2018-06-04T08:32:34.967Z,982.07
2018-06-04T08:33:35.151Z,982.08
2018-06-04T08:34:35.353Z,982.06
2018-06-04T08:35:35.670Z,982.03
2018-06-04T08:36:36.876Z,981.99
2018-06-04T08:37:36.033Z,982.00
2018-06-04T08:38:36.222Z,981.99
2018-06-04T08:39:36.413Z,981.98
2018-06-04T08:40:36.602Z,981.98
2018-06-04T08:41:36.835Z,981.95
2018-06-04T08:42:37.052Z,981.95
2018-06-04T08:43:37.189Z,981.93
2018-06-04T08:44:37.378Z,981.92
2018-06-04T08:45:37.600Z,981.90
2018-06-04T08:46:37.773Z,981.93
2018-06-04T08:47:37.974Z,981.90
2018-06-04T08:48:38.186Z,981.88
2018-06-04T08:49:38.376Z,981.86
2018-06-04T08:50:38.587Z,981.89
2018-06-04T08:51:38.769Z,981.85
2018-06-04T08:52:38.968Z,981.87
2018-06-04T08:53:39.176Z,981.88
2018-06-04T08:54:39.358Z,981.87
2018-06-04T08:55:40.229Z,981.84
2018-06-04T08:56:39.709Z,981.83
2018-06-04T08:57:39.929Z,981.80
2018-06-04T08:58:40.133Z,981.83
2018-06-04T08:59:40.311Z,981.83
2018-06-04T09:00:40.517Z,981.83
2018-06-04T09:01:40.821Z,981.82
2018-06-04T09:02:40.910Z,981.80
2018-06-04T09:03:41.085Z,981.79
2018-06-04T09:04:41.283Z,981.80
2018-06-04T09:05:41.478Z,981.80
2018-06-04T09:06:41.667Z,981.76
2018-06-04T09:07:41.862Z,981.79
2018-06-04T09:08:42.058Z,981.78
2018-06-04T09:09:42.253Z,981.80
2018-06-04T09:10:42.461Z,981.78
2018-06-04T09:11:42.639Z,981.78
2018-06-04T09:12:42.894Z,981.78
2018-06-04T09:13:43.092Z,981.81
2018-06-04T09:14:43.264Z,981.78
2018-06-04T09:15:43.428Z,981.85
2018-06-04T09:16:43.581Z,981.81
2018-06-04T09:17:43.788Z,981.78
2018-06-04T09:18:43.977Z,981.83
2018-06-04T09:19:44.179Z,981.82
2018-06-04T09:20:44.375Z,981.71
2018-06-04T09:21:44.604Z,981.72
2018-06-04T09:22:44.764Z,981.71
2018-06-04T09:23:44.961Z,981.71
2018-06-04T09:24:45.777Z,981.64
2018-06-04T09:25:45.316Z,981.68
2018-06-04T09:26:45.473Z,981.66
2018-06-04T09:27:45.674Z,981.71
2018-06-04T09:28:45.895Z,981.65
2018-06-04T09:29:46.105Z,981.69
2018-06-04T09:30:46.301Z,981.70
2018-06-04T09:31:46.499Z,981.70
2018-06-04T09:32:46.665Z,981.70
2018-06-04T09:33:47.671Z,981.69
2018-06-04T09:34:47.120Z,981.67
2018-06-04T09:35:47.351Z,981.71
2018-06-04T09:36:47.725Z,981.66
2018-06-04T09:37:47.727Z,981.72
2018-06-04T09:38:48.003Z,981.65
2018-06-04T09:39:48.131Z,981.71
2018-06-04T09:40:48.264Z,981.70
2018-06-04T09:41:48.472Z,981.70
2018-06-04T09:42:48.705Z,981.69
2018-06-04T09:43:48.854Z,981.70
2018-06-04T09:44:49.027Z,981.72
2018-06-04T09:45:49.278Z,981.70
2018-06-04T09:46:49.456Z,981.69
2018-06-04T09:47:49.615Z,981.72
2018-06-04T09:48:49.815Z,981.68
2018-06-04T09:49:50.041Z,981.69
2018-06-04T09:50:50.207Z,981.69
2018-06-04T09:51:50.382Z,981.66
2018-06-04T09:52:50.570Z,981.66
2018-06-04T09:53:50.824Z,981.65
2018-06-04T09:54:50.935Z,981.64
2018-06-04T09:55:51.151Z,981.66
2018-06-04T09:56:51.335Z,981.65
2018-06-04T09:57:51.526Z,981.68
2018-06-04T09:58:51.714Z,981.70
2018-06-04T09:59:51.914Z,981.73
2018-06-04T10:00:52.109Z,981.69
2018-06-04T10:01:52.300Z,981.67
2018-06-04T10:02:52.491Z,981.66
2018-06-04T10:03:52.669Z,981.64
2018-06-04T10:04:52.939Z,981.64
2018-06-04T10:05:53.101Z,981.64
2018-06-04T10:06:53.258Z,981.61
2018-06-04T10:07:53.460Z,981.62
2018-06-04T10:08:53.701Z,981.58
2018-06-04T10:09:53.848Z,981.59
2018-06-04T10:10:54.074Z,981.60
2018-06-04T10:11:54.225Z,981.62
2018-06-04T10:12:54.398Z,981.59
2018-06-04T10:13:54.584Z,981.58
2018-06-04T10:14:54.816Z,981.59
2018-06-04T10:15:54.988Z,981.58
2018-06-04T10:16:55.161Z,981.61
2018-06-04T10:17:55.353Z,981.58
2018-06-04T10:18:55.554Z,981.56
2018-06-04T10:19:55.763Z,981.55
2018-06-04T10:20:56.052Z,981.53
2018-06-04T10:21:56.139Z,981.56
2018-06-04T10:22:56.323Z,981.55
2018-06-04T10:23:56.492Z,981.53
2018-06-04T10:24:56.684Z,981.50
2018-06-04T10:25:56.943Z,981.52
2018-06-04T10:26:57.077Z,981.48
2018-06-04T10:27:57.356Z,981.45
2018-06-04T10:28:57.454Z,981.45
2018-06-04T10:29:57.660Z,981.44
2018-06-04T10:30:57.860Z,981.43
2018-06-04T10:31:58.070Z,981.42
2018-06-04T10:32:58.197Z,981.40
2018-06-04T10:33:59.153Z,981.43
2018-06-04T10:34:58.597Z,981.47
2018-06-04T10:35:58.802Z,981.38
2018-06-04T10:36:58.954Z,981.44
2018-06-04T10:37:59.146Z,981.40
2018-06-04T10:38:59.343Z,981.43
2018-06-04T10:39:59.542Z,981.40
2018-06-04T10:40:59.727Z,981.40
2018-06-04T10:41:59.947Z,981.36
2018-06-04T10:43:00.114Z,981.39
2018-06-04T10:44:00.302Z,981.40
2018-06-04T10:45:00.467Z,981.39
2018-06-04T10:46:00.660Z,981.42
2018-06-04T10:47:00.845Z,981.40
2018-06-04T10:48:01.063Z,981.34
2018-06-04T10:49:01.235Z,981.36
2018-06-04T10:50:01.440Z,981.36
2018-06-04T10:51:01.609Z,981.38
2018-06-04T10:52:01.797Z,981.37
2018-06-04T10:53:01.969Z,981.44
2018-06-04T10:54:02.165Z,981.42
2018-06-04T10:55:02.361Z,981.41
2018-06-04T10:56:02.577Z,981.36
2018-06-04T10:57:02.734Z,981.37
2018-06-04T10:58:02.944Z,981.36
2018-06-04T10:59:03.143Z,981.35
2018-06-04T11:00:03.358Z,981.33
2018-06-04T11:01:03.521Z,981.32
2018-06-04T11:02:03.684Z,981.30
2018-06-04T11:03:03.905Z,981.30
2018-06-04T11:04:04.082Z,981.25
2018-06-04T11:05:04.317Z,981.24
2018-06-04T11:06:04.438Z,981.25
2018-06-04T11:07:05.177Z,981.22
2018-06-04T11:08:04.778Z,981.20
2018-06-04T11:09:05.010Z,981.18
2018-06-04T11:10:05.200Z,981.18
2018-06-04T11:11:05.359Z,981.15
2018-06-04T11:12:05.522Z,981.17
2018-06-04T11:13:05.725Z,981.14
2018-06-04T11:14:05.876Z,981.21
2018-06-04T11:15:06.064Z,981.19
2018-06-04T11:16:06.249Z,981.19
2018-06-04T11:17:06.438Z,981.17
2018-06-04T11:18:06.675Z,981.14
2018-06-04T11:19:06.918Z,981.16
2018-06-04T11:20:07.025Z,981.14
2018-06-04T11:21:07.207Z,981.13
2018-06-04T11:22:07.399Z,981.13
2018-06-04T11:23:07.621Z,981.13
2018-06-04T11:24:07.782Z,981.12
2018-06-04T11:25:07.969Z,981.10
2018-06-04T11:26:08.202Z,981.15
2018-06-04T11:27:08.357Z,981.12
2018-06-04T11:28:08.580Z,981.11
2018-06-04T11:29:08.783Z,981.09
2018-06-04T11:30:08.948Z,981.11
2018-06-04T11:31:09.131Z,981.08
2018-06-04T11:32:09.340Z,981.13
2018-06-04T11:33:09.559Z,981.12
2018-06-04T11:34:09.773Z,981.11
2018-06-04T11:35:09.890Z,981.13
2018-06-04T11:36:10.077Z,981.06
2018-06-04T11:37:10.262Z,981.03
2018-06-04T11:38:10.465Z,981.03
2018-06-04T11:39:10.637Z,981.07
2018-06-04T11:40:10.826Z,981.02
2018-06-04T11:41:11.033Z,981.02
2018-06-04T11:42:11.228Z,981.05
2018-06-04T11:43:11.403Z,981.05
2018-06-04T11:44:11.595Z,980.98
2018-06-04T11:45:11.806Z,981.00
2018-06-04T11:46:11.967Z,980.99
2018-06-04T11:47:12.165Z,980.98
2018-06-04T11:48:12.387Z,980.97
2018-06-04T11:49:12.586Z,980.94
2018-06-04T11:50:12.777Z,980.94
2018-06-04T11:51:13.082Z,980.96
2018-06-04T11:52:13.146Z,980.93
2018-06-04T11:53:13.324Z,980.97
2018-06-04T11:54:13.518Z,980.96
2018-06-04T11:55:13.741Z,980.96
2018-06-04T11:56:13.894Z,980.95
2018-06-04T11:57:14.074Z,980.94
2018-06-04T11:58:14.289Z,980.96
2018-06-04T11:59:14.453Z,980.89
2018-06-04T12:00:14.650Z,980.89
2018-06-04T12:01:14.834Z,980.92
2018-06-04T12:02:15.046Z,980.90
2018-06-04T12:03:15.240Z,980.91
2018-06-04T12:04:15.428Z,980.90
2018-06-04T12:05:15.626Z,980.92
2018-06-04T12:06:15.837Z,980.91
2018-06-04T12:07:16.017Z,980.86
2018-06-04T12:08:16.230Z,980.87
2018-06-04T12:09:16.444Z,980.87
2018-06-04T12:10:16.633Z,980.87
2018-06-04T12:11:16.807Z,980.84
2018-06-04T12:12:17.051Z,980.82
2018-06-04T12:13:17.180Z,980.78
2018-06-04T12:14:17.390Z,980.77
2018-06-04T12:15:17.573Z,980.73
2018-06-04T12:16:17.779Z,980.72
2018-06-04T12:17:17.981Z,980.76
2018-06-04T12:18:18.180Z,980.70
2018-06-04T12:19:18.329Z,980.72
2018-06-04T12:20:18.522Z,980.71
2018-06-04T12:21:18.783Z,980.73
2018-06-04T12:22:18.923Z,980.75
2018-06-04T12:23:19.090Z,980.67
2018-06-04T12:24:19.264Z,980.66
2018-06-04T12:25:19.471Z,980.63
2018-06-04T12:26:19.661Z,980.66
2018-06-04T12:27:19.843Z,980.65
2018-06-04T12:28:20.052Z,980.62
2018-06-04T12:29:20.264Z,980.62
2018-06-04T12:30:20.460Z,980.62
2018-06-04T12:31:20.638Z,980.59